Time;durP1;ratioP1;P1;durP2;ratioP2;P2;SDS_P1;SDS_P2;PMS_P1;PMS_P2;Temp;Humidity;BMP_temperature;BMP_pressure;BME280_temperature;BME280_humidity;BME280_pressure;Samples;Min_cycle;Max_cycle;Signal;HPM_P1;HPM_P2
2021/08/09 00:02:14;;;;;;;6.37;2.83;;;13.30;99.90;;;;;;5016379;28;20537;-67
2021/08/09 00:04:41;;;;;;;3.77;3.13;;;13.40;99.90;;;;;;5016573;28;20627;-67
2021/08/09 00:07:09;;;;;;;2.87;2.67;;;13.40;99.90;;;;;;5016384;28;20621;-67
2021/08/09 00:09:35;;;;;;;2.80;2.60;;;13.40;99.90;;;;;;5016401;28;20633;-67
2021/08/09 00:12:02;;;;;;;4.93;2.67;;;13.30;99.90;;;;;;5016062;28;20641;-67
2021/08/09 00:14:29;;;;;;;3.58;2.80;;;13.30;99.90;;;;;;5016494;28;21131;-68
2021/08/09 00:16:55;;;;;;;3.20;2.87;;;13.30;99.90;;;;;;5016293;28;20206;-68
2021/08/09 00:19:21;;;;;;;4.60;2.60;;;13.30;99.90;;;;;;5016016;28;20972;-68
2021/08/09 00:21:47;;;;;;;3.10;2.90;;;13.20;99.90;;;;;;5016178;28;20631;-68
2021/08/09 00:24:14;;;;;;;4.33;2.60;;;13.30;99.90;;;;;;5016403;28;20600;-68
2021/08/09 00:26:40;;;;;;;3.17;2.87;;;13.20;99.90;;;;;;5015786;28;20620;-68
2021/08/09 00:29:07;;;;;;;3.07;2.87;;;13.20;99.90;;;;;;5014554;28;20649;-68
2021/08/09 00:31:33;;;;;;;3.00;2.72;;;13.20;99.90;;;;;;5016183;28;21201;-68
2021/08/09 00:34:00;;;;;;;7.23;3.37;;;13.20;99.90;;;;;;5015824;28;20197;-68
2021/08/09 00:36:26;;;;;;;3.00;2.80;;;13.20;99.90;;;;;;5016064;28;20651;-67
2021/08/09 00:38:53;;;;;;;3.10;2.83;;;13.20;99.90;;;;;;5015836;28;21147;-67
2021/08/09 00:41:19;;;;;;;4.20;3.10;;;13.20;99.90;;;;;;5015821;28;20625;-67
2021/08/09 00:43:45;;;;;;;2.93;2.73;;;13.20;99.90;;;;;;5015654;28;20688;-67
2021/08/09 00:46:12;;;;;;;3.00;2.80;;;13.10;99.90;;;;;;5015864;28;20617;-67
2021/08/09 00:48:38;;;;;;;3.63;2.70;;;13.10;99.90;;;;;;5015345;28;20246;-67
2021/08/09 00:51:08;;;;;;;3.40;2.80;;;13.00;99.90;;;;;;5015483;28;20905;-67
2021/08/09 00:53:35;;;;;;;11.67;3.10;;;12.90;99.90;;;;;;5015478;28;20958;-67
2021/08/09 00:56:02;;;;;;;5.13;3.27;;;12.90;99.90;;;;;;5015645;28;20693;-67
2021/08/09 00:58:29;;;;;;;4.17;3.20;;;12.90;99.90;;;;;;5015574;28;21135;-67
2021/08/09 01:00:55;;;;;;;5.17;3.00;;;12.80;99.90;;;;;;5016710;28;20593;-69
2021/08/09 01:03:22;;;;;;;5.13;3.03;;;12.80;99.90;;;;;;5017347;28;21162;-68
2021/08/09 01:05:50;;;;;;;2.70;2.50;;;12.80;99.90;;;;;;5017031;28;20213;-68
2021/08/09 01:08:31;;;;;;;3.20;2.60;;;12.70;99.90;;;;;;5017307;28;20701;-69
2021/08/09 01:11:09;;;;;;;3.20;2.90;;;12.60;99.90;;;;;;5018123;28;20188;-68
2021/08/09 01:13:55;;;;;;;2.40;2.30;;;12.60;99.90;;;;;;5017108;28;20190;-69
2021/08/09 01:16:31;;;;;;;3.15;2.95;;;12.60;99.90;;;;;;5017251;28;20210;-70
2021/08/09 01:19:06;;;;;;;3.20;3.00;;;12.60;99.90;;;;;;5017078;28;20284;-68
2021/08/09 01:21:34;;;;;;;3.03;2.72;;;12.60;99.90;;;;;;5017024;28;20185;-68
2021/08/09 01:24:18;;;;;;;4.75;3.00;;;12.50;99.90;;;;;;5016852;28;20534;-68
2021/08/09 01:27:06;;;;;;;3.42;2.88;;;12.50;99.90;;;;;;5017210;28;20177;-68
2021/08/09 01:29:42;;;;;;;4.72;3.30;;;12.50;99.90;;;;;;5017421;28;20614;-68
2021/08/09 01:32:10;;;;;;;4.50;2.78;;;12.40;99.90;;;;;;5017522;28;20584;-68
2021/08/09 01:34:37;;;;;;;4.03;2.90;;;12.40;99.90;;;;;;5017114;28;20260;-68
2021/08/09 01:37:05;;;;;;;3.92;3.00;;;12.40;99.90;;;;;;5016450;28;20197;-68
2021/08/09 01:39:32;;;;;;;3.10;2.90;;;12.40;99.90;;;;;;5017468;28;20197;-69
2021/08/09 01:41:59;;;;;;;3.33;2.70;;;12.40;99.90;;;;;;5017090;28;20624;-68
2021/08/09 01:44:25;;;;;;;3.03;2.83;;;12.40;99.90;;;;;;5016750;28;20912;-68
2021/08/09 01:46:52;;;;;;;2.92;2.63;;;12.40;99.90;;;;;;5016812;28;20956;-68
2021/08/09 01:49:20;;;;;;;3.60;2.67;;;12.30;99.90;;;;;;5017152;28;20225;-68
2021/08/09 01:51:47;;;;;;;4.18;2.35;;;12.40;99.90;;;;;;5017066;28;20300;-68
2021/08/09 01:54:14;;;;;;;3.50;2.80;;;12.40;99.90;;;;;;5015418;28;20210;-68
2021/08/09 01:56:42;;;;;;;2.60;2.50;;;12.40;99.90;;;;;;5016839;28;20198;-68
2021/08/09 01:59:08;;;;;;;2.43;2.23;;;12.30;99.90;;;;;;5017036;28;20197;-68
2021/08/09 02:01:35;;;;;;;2.90;2.00;;;12.20;99.90;;;;;;5017228;28;21151;-68
2021/08/09 02:04:02;;;;;;;3.30;2.72;;;12.20;99.90;;;;;;5017394;28;20988;-69
2021/08/09 02:06:28;;;;;;;2.92;2.70;;;12.20;99.90;;;;;;5017069;28;20198;-69
2021/08/09 02:08:54;;;;;;;2.50;2.30;;;12.10;99.90;;;;;;5018157;28;20206;-69
2021/08/09 02:11:37;;;;;;;3.30;2.60;;;12.20;99.90;;;;;;5017788;28;20205;-69
2021/08/09 02:14:06;;;;;;;14.38;6.53;;;12.20;99.90;;;;;;5018074;28;20193;-69
2021/08/09 02:16:42;;;;;;;2.60;2.40;;;12.10;99.90;;;;;;5019802;28;20186;-69
2021/08/09 02:19:38;;;;;;;5.40;3.90;;;12.10;99.90;;;;;;5022522;28;20184;-69
2021/08/09 02:22:16;;;;;;;5.18;3.97;;;12.00;99.90;;;;;;5017195;28;20731;-69
2021/08/09 02:24:58;;;;;;;9.30;3.03;;;12.10;99.90;;;;;;5019518;28;20192;-69
2021/08/09 02:27:29;;;;;;;4.55;4.15;;;12.10;99.90;;;;;;5018560;28;20569;-69
2021/08/09 02:29:56;;;;;;;2.72;2.53;;;12.10;99.90;;;;;;5018188;28;20205;-69
2021/08/09 02:32:28;;;;;;;3.92;3.63;;;12.20;99.90;;;;;;5018280;28;20222;-69
2021/08/09 02:34:56;;;;;;;3.40;3.00;;;12.30;99.90;;;;;;5019056;28;20592;-69
2021/08/09 02:37:24;;;;;;;4.47;3.42;;;12.30;99.90;;;;;;5016998;28;20194;-70
2021/08/09 02:39:51;;;;;;;3.53;3.17;;;12.30;99.90;;;;;;5018597;28;20208;-67
2021/08/09 02:42:17;;;;;;;3.03;2.80;;;12.20;99.90;;;;;;5018239;28;20201;-70
2021/08/09 02:44:44;;;;;;;3.80;3.40;;;12.30;99.90;;;;;;5017871;28;20206;-67
2021/08/09 02:47:14;;;;;;;4.43;2.88;;;12.30;99.90;;;;;;5018770;28;20214;-68
2021/08/09 02:49:47;;;;;;;5.05;4.25;;;12.30;99.90;;;;;;5017737;28;20269;-68
2021/08/09 02:52:17;;;;;;;4.53;3.65;;;12.30;99.90;;;;;;5017424;28;20236;-68
2021/08/09 02:54:47;;;;;;;3.85;3.33;;;12.20;99.90;;;;;;5017639;28;20193;-68
2021/08/09 02:57:15;;;;;;;3.75;3.45;;;12.20;99.90;;;;;;5016267;28;20193;-68
2021/08/09 02:59:42;;;;;;;3.90;3.60;;;12.20;99.90;;;;;;5016835;28;20756;-68
2021/08/09 03:02:11;;;;;;;8.05;3.38;;;12.20;99.90;;;;;;5016253;28;20210;-68
2021/08/09 03:04:39;;;;;;;3.90;3.60;;;12.10;99.90;;;;;;5003283;28;20590;-68
2021/08/09 03:07:08;;;;;;;6.47;3.50;;;12.20;99.90;;;;;;5016482;28;20206;-68
2021/08/09 03:09:35;;;;;;;3.60;3.30;;;12.10;99.90;;;;;;5016845;28;20536;-68
2021/08/09 03:12:02;;;;;;;12.68;3.75;;;12.20;99.90;;;;;;5016171;28;20232;-68
2021/08/09 03:14:31;;;;;;;3.78;3.47;;;12.30;99.90;;;;;;5016235;28;20202;-68
2021/08/09 03:17:02;;;;;;;14.70;4.13;;;12.40;99.90;;;;;;5017159;28;20198;-68
2021/08/09 03:19:29;;;;;;;5.15;3.75;;;12.50;99.90;;;;;;5017872;28;20206;-68
2021/08/09 03:21:58;;;;;;;11.33;6.30;;;12.50;99.90;;;;;;5015827;28;20236;-68
2021/08/09 03:24:26;;;;;;;5.63;4.30;;;12.50;99.90;;;;;;5017021;28;20613;-68
2021/08/09 03:26:52;;;;;;;3.92;3.55;;;12.50;99.90;;;;;;5015873;28;20194;-68
2021/08/09 03:29:19;;;;;;;5.90;3.67;;;12.50;99.90;;;;;;5016848;28;20588;-68
2021/08/09 03:31:46;;;;;;;5.95;4.05;;;12.40;99.90;;;;;;5017313;28;20649;-68
2021/08/09 03:34:13;;;;;;;4.97;4.00;;;12.40;99.90;;;;;;5017678;28;20657;-68
2021/08/09 03:36:46;;;;;;;6.50;3.60;;;12.40;99.90;;;;;;5016678;28;20628;-68
2021/08/09 03:39:13;;;;;;;5.45;3.75;;;12.40;99.90;;;;;;5016616;28;20188;-68
2021/08/09 03:41:39;;;;;;;4.53;4.13;;;12.40;99.90;;;;;;5018674;28;20559;-68
2021/08/09 03:44:06;;;;;;;5.07;3.38;;;12.50;99.90;;;;;;5019397;28;20206;-69
2021/08/09 03:46:33;;;;;;;4.13;3.72;;;12.50;99.90;;;;;;5019467;28;20206;-69
2021/08/09 03:49:04;;;;;;;4.10;3.40;;;12.50;99.90;;;;;;5018737;28;20241;-69
2021/08/09 03:51:31;;;;;;;4.97;4.38;;;12.50;99.90;;;;;;5018182;28;20628;-69
2021/08/09 03:53:57;;;;;;;5.60;3.85;;;12.50;99.90;;;;;;5018880;28;20374;-69
2021/08/09 03:56:24;;;;;;;8.63;3.58;;;12.50;99.90;;;;;;5017979;28;20668;-69
2021/08/09 03:58:50;;;;;;;4.03;3.60;;;12.60;99.90;;;;;;5018211;28;20205;-69
2021/08/09 04:01:16;;;;;;;7.13;3.13;;;12.50;99.90;;;;;;5021379;28;20201;-69
2021/08/09 04:03:43;;;;;;;8.27;4.00;;;12.60;99.90;;;;;;5023406;28;20597;-69
2021/08/09 04:06:10;;;;;;;7.85;3.92;;;12.50;99.90;;;;;;5023966;28;20621;-69
2021/08/09 04:08:40;;;;;;;4.47;4.07;;;12.50;99.90;;;;;;5038795;28;20190;-69
2021/08/09 04:11:06;;;;;;;4.53;4.10;;;12.50;99.90;;;;;;5023481;28;20201;-69
2021/08/09 04:13:36;;;;;;;5.57;4.40;;;12.50;99.90;;;;;;5022565;28;21019;-69
2021/08/09 04:16:03;;;;;;;5.50;5.00;;;12.50;99.90;;;;;;5024284;28;20695;-69
2021/08/09 04:18:29;;;;;;;7.22;4.50;;;12.50;99.90;;;;;;5024080;28;20609;-69
2021/08/09 04:20:55;;;;;;;3.50;3.20;;;12.50;99.90;;;;;;5024264;28;20202;-69
2021/08/09 04:23:22;;;;;;;15.23;5.00;;;12.60;99.90;;;;;;5024246;28;20609;-69
2021/08/09 04:25:48;;;;;;;4.22;3.80;;;12.60;99.90;;;;;;5025061;28;20653;-69
2021/08/09 04:28:14;;;;;;;4.60;4.20;;;12.60;99.90;;;;;;5023533;28;20186;-69
2021/08/09 04:30:41;;;;;;;9.03;4.40;;;12.60;99.90;;;;;;5021785;28;20628;-69
2021/08/09 04:33:07;;;;;;;5.83;4.03;;;12.70;99.90;;;;;;5020799;28;20666;-69
2021/08/09 04:35:33;;;;;;;4.80;4.30;;;12.80;99.90;;;;;;5020192;28;20661;-69
2021/08/09 04:38:00;;;;;;;4.88;3.75;;;12.70;99.90;;;;;;5020664;28;20601;-69
2021/08/09 04:40:26;;;;;;;5.33;4.00;;;12.80;99.90;;;;;;5020997;28;20298;-69
2021/08/09 04:42:53;;;;;;;5.13;4.28;;;12.80;99.90;;;;;;5035233;28;20629;-69
2021/08/09 04:45:19;;;;;;;5.40;3.97;;;12.70;99.90;;;;;;5019036;28;20240;-69
2021/08/09 04:47:45;;;;;;;4.68;3.95;;;12.70;99.90;;;;;;5021232;28;20226;-69
2021/08/09 04:50:12;;;;;;;11.27;5.15;;;12.70;99.90;;;;;;5021287;28;20646;-69
2021/08/09 04:52:43;;;;;;;4.63;4.22;;;12.70;99.90;;;;;;5020085;28;20221;-69
2021/08/09 04:55:10;;;;;;;9.80;4.15;;;12.70;99.90;;;;;;5021313;28;20190;-69
2021/08/09 04:57:37;;;;;;;6.72;3.85;;;12.70;99.90;;;;;;5020594;28;20292;-69
2021/08/09 05:00:05;;;;;;;6.32;4.60;;;12.70;99.90;;;;;;5019990;28;20194;-69
2021/08/09 05:02:32;;;;;;;6.93;4.38;;;12.70;99.90;;;;;;5020906;28;20216;-69
2021/08/09 05:05:00;;;;;;;5.00;3.60;;;12.70;99.90;;;;;;5020233;28;20194;-69
2021/08/09 05:07:26;;;;;;;10.57;4.67;;;12.80;99.90;;;;;;5020234;28;20603;-69
2021/08/09 05:09:52;;;;;;;5.30;4.77;;;12.80;99.90;;;;;;5019963;28;20627;-69
2021/08/09 05:12:19;;;;;;;4.43;4.00;;;12.90;99.90;;;;;;5019065;28;21177;-69
2021/08/09 05:14:45;;;;;;;4.80;4.15;;;12.80;99.90;;;;;;5034437;28;20194;-69
2021/08/09 05:17:12;;;;;;;8.70;3.60;;;12.90;99.90;;;;;;5019983;28;20194;-69
2021/08/09 05:19:38;;;;;;;5.50;4.63;;;13.00;99.90;;;;;;5020993;28;20194;-69
2021/08/09 05:22:04;;;;;;;4.68;3.95;;;13.00;99.90;;;;;;5021501;28;20700;-69
2021/08/09 05:24:31;;;;;;;6.00;3.50;;;13.10;99.90;;;;;;5020922;28;20194;-69
2021/08/09 05:26:57;;;;;;;3.78;3.47;;;13.10;99.90;;;;;;5020890;28;20615;-69
2021/08/09 05:29:24;;;;;;;3.53;3.23;;;13.10;99.90;;;;;;5020533;28;20202;-69
2021/08/09 05:31:50;;;;;;;5.70;3.53;;;13.20;99.90;;;;;;5020068;28;20609;-69
2021/08/09 05:34:16;;;;;;;4.60;4.10;;;13.20;99.90;;;;;;5019666;28;20633;-69
2021/08/09 05:36:44;;;;;;;3.60;3.30;;;13.20;99.90;;;;;;5021009;28;20597;-69
2021/08/09 05:39:10;;;;;;;7.93;4.22;;;13.30;99.90;;;;;;5023493;28;20617;-69
2021/08/09 05:41:37;;;;;;;5.27;4.50;;;13.40;99.90;;;;;;5040215;28;20559;-69
2021/08/09 05:44:03;;;;;;;7.17;4.70;;;13.50;99.90;;;;;;5021086;28;20705;-69
2021/08/09 05:46:30;;;;;;;11.90;4.80;;;13.60;99.90;;;;;;5018194;28;20617;-69
2021/08/09 05:48:56;;;;;;;4.93;4.43;;;13.70;99.90;;;;;;5018006;28;21204;-69
2021/08/09 05:51:22;;;;;;;6.13;4.03;;;13.80;99.90;;;;;;5017651;28;20975;-69
2021/08/09 05:53:49;;;;;;;9.23;4.60;;;13.80;99.90;;;;;;5018920;28;20637;-69
2021/08/09 05:56:15;;;;;;;14.83;4.37;;;13.90;99.90;;;;;;5019046;28;20692;-69
2021/08/09 05:58:41;;;;;;;6.60;4.17;;;13.90;99.90;;;;;;5018186;28;20633;-69
2021/08/09 06:01:08;;;;;;;7.73;6.17;;;13.80;99.90;;;;;;5018296;28;20679;-69
2021/08/09 06:03:35;;;;;;;7.37;5.20;;;13.80;99.90;;;;;;5018696;28;20607;-68
2021/08/09 06:06:02;;;;;;;5.23;3.90;;;13.70;99.90;;;;;;5020070;28;20724;-68
2021/08/09 06:08:28;;;;;;;5.70;3.77;;;13.70;99.90;;;;;;5021535;28;20623;-69
2021/08/09 06:10:54;;;;;;;8.77;4.00;;;13.70;99.90;;;;;;5018890;28;20960;-68
2021/08/09 06:13:20;;;;;;;9.13;5.60;;;13.80;99.90;;;;;;5018512;28;20641;-67
2021/08/09 06:15:47;;;;;;;9.90;5.30;;;14.00;99.90;;;;;;5014324;28;20605;-67
2021/08/09 06:18:13;;;;;;;7.27;4.50;;;14.10;99.90;;;;;;5013596;28;20995;-67
2021/08/09 06:20:40;;;;;;;6.73;4.87;;;14.20;99.90;;;;;;5013953;28;20601;-67
2021/08/09 06:23:06;;;;;;;4.73;4.30;;;14.30;99.90;;;;;;5013669;28;20620;-67
2021/08/09 06:25:32;;;;;;;11.77;5.60;;;14.40;99.90;;;;;;5014075;28;20627;-67
2021/08/09 06:27:59;;;;;;;11.03;5.47;;;14.50;99.90;;;;;;5013983;28;20620;-66
2021/08/09 06:30:25;;;;;;;7.27;4.37;;;14.70;99.90;;;;;;5013879;28;20657;-67
2021/08/09 06:32:51;;;;;;;6.60;4.20;;;14.80;99.90;;;;;;5013656;28;20652;-67
2021/08/09 06:35:18;;;;;;;6.87;4.40;;;14.90;99.90;;;;;;5013732;28;20597;-68
2021/08/09 06:37:44;;;;;;;9.03;4.60;;;15.10;99.90;;;;;;5013849;28;20589;-67
2021/08/09 06:40:11;;;;;;;4.50;4.07;;;15.30;99.90;;;;;;5013969;28;20639;-67
2021/08/09 06:42:37;;;;;;;11.43;3.97;;;15.40;99.90;;;;;;5028530;28;20617;-67
2021/08/09 06:45:04;;;;;;;5.37;4.00;;;15.50;99.90;;;;;;5013697;28;20636;-67
2021/08/09 06:47:30;;;;;;;11.40;4.20;;;15.50;99.90;;;;;;5013525;28;20657;-67
2021/08/09 06:49:56;;;;;;;4.80;3.20;;;15.70;99.90;;;;;;5013448;28;20696;-67
2021/08/09 06:52:23;;;;;;;6.30;3.30;;;15.70;99.90;;;;;;5013816;28;20616;-67
2021/08/09 06:54:49;;;;;;;5.17;2.93;;;15.80;99.90;;;;;;5013924;28;20609;-67
2021/08/09 06:57:15;;;;;;;4.83;3.37;;;16.00;99.90;;;;;;5013622;28;21048;-67
2021/08/09 06:59:41;;;;;;;11.50;3.30;;;16.10;99.90;;;;;;5013761;28;20615;-68
2021/08/09 07:02:08;;;;;;;3.80;2.87;;;16.40;99.90;;;;;;5013748;28;20632;-67
2021/08/09 07:04:34;;;;;;;3.37;3.07;;;16.50;99.90;;;;;;5013531;28;20672;-67
2021/08/09 07:07:01;;;;;;;5.70;4.30;;;16.60;99.90;;;;;;5028094;28;20983;-67
2021/08/09 07:09:27;;;;;;;3.53;3.10;;;16.70;99.90;;;;;;5013561;28;20719;-67
2021/08/09 07:11:53;;;;;;;7.60;3.10;;;16.70;99.90;;;;;;5013555;28;21012;-67
2021/08/09 07:14:21;;;;;;;3.67;2.70;;;16.70;99.90;;;;;;5013438;28;20661;-67
2021/08/09 07:16:49;;;;;;;3.30;2.87;;;16.80;99.90;;;;;;5013206;28;20634;-68
2021/08/09 07:19:16;;;;;;;5.43;3.00;;;16.90;99.90;;;;;;5013452;28;20631;-67
2021/08/09 07:21:42;;;;;;;3.47;2.53;;;17.00;99.90;;;;;;5013227;28;20612;-67
2021/08/09 07:24:09;;;;;;;4.27;2.53;;;17.10;99.90;;;;;;5013335;28;20609;-67
2021/08/09 07:26:35;;;;;;;4.50;3.27;;;17.30;99.90;;;;;;5013486;28;20980;-67
2021/08/09 07:29:01;;;;;;;4.27;2.63;;;17.40;99.90;;;;;;5013535;28;20625;-66
2021/08/09 07:31:28;;;;;;;4.63;2.57;;;17.50;99.90;;;;;;5013484;28;20623;-67
2021/08/09 07:33:54;;;;;;;2.33;2.10;;;17.70;99.90;;;;;;5013109;28;20641;-66
2021/08/09 07:36:20;;;;;;;4.37;2.83;;;17.60;99.90;;;;;;5015841;28;20619;-66
2021/08/09 07:38:47;;;;;;;2.90;2.40;;;17.80;99.90;;;;;;5017154;28;20621;-67
2021/08/09 07:41:15;;;;;;;5.13;2.80;;;17.80;99.90;;;;;;5017072;28;20620;-67
2021/08/09 07:43:41;;;;;;;5.57;2.87;;;17.90;99.90;;;;;;5016970;28;20607;-67
2021/08/09 07:46:08;;;;;;;2.17;1.97;;;18.10;99.90;;;;;;5016628;28;20597;-67
2021/08/09 07:48:34;;;;;;;4.23;2.33;;;18.30;99.90;;;;;;5016477;28;20644;-67
2021/08/09 07:51:00;;;;;;;7.73;2.13;;;18.30;99.90;;;;;;5016608;28;20597;-67
2021/08/09 07:53:27;;;;;;;7.30;2.20;;;18.30;99.90;;;;;;5016248;28;20660;-67
2021/08/09 07:55:53;;;;;;;2.27;2.07;;;18.30;99.90;;;;;;5016572;28;20617;-67
2021/08/09 07:58:19;;;;;;;9.63;1.93;;;18.40;99.90;;;;;;5016449;28;20596;-67
2021/08/09 08:00:46;;;;;;;12.60;2.17;;;18.30;99.90;;;;;;5016696;28;20616;-68
2021/08/09 08:03:12;;;;;;;3.00;1.73;;;18.30;99.90;;;;;;5016351;28;20630;-67
2021/08/09 08:05:38;;;;;;;2.20;2.00;;;18.20;99.90;;;;;;5016248;28;20984;-67
2021/08/09 08:08:05;;;;;;;7.40;3.00;;;18.20;99.90;;;;;;5016232;28;20611;-67
2021/08/09 08:10:32;;;;;;;2.07;1.87;;;18.40;99.90;;;;;;5016528;28;20620;-67
2021/08/09 08:12:58;;;;;;;2.97;2.70;;;18.70;99.90;;;;;;5016330;28;21027;-68
2021/08/09 08:15:25;;;;;;;2.50;2.20;;;18.70;99.90;;;;;;5016192;28;20597;-68
2021/08/09 08:17:51;;;;;;;5.30;2.60;;;18.90;99.90;;;;;;5016046;28;20696;-68
2021/08/09 08:20:17;;;;;;;9.60;2.73;;;19.10;99.90;;;;;;5015966;28;20597;-68
2021/08/09 08:22:43;;;;;;;2.80;1.53;;;19.20;99.90;;;;;;5014945;28;20634;-68
2021/08/09 08:25:10;;;;;;;6.17;2.00;;;19.30;99.90;;;;;;5016028;28;20616;-67
2021/08/09 08:27:37;;;;;;;5.30;1.50;;;19.40;99.90;;;;;;5015767;28;20621;-67
2021/08/09 08:30:05;;;;;;;4.83;2.17;;;19.50;99.90;;;;;;5015818;28;20608;-67
2021/08/09 08:32:32;;;;;;;1.57;1.47;;;19.70;99.90;;;;;;5015921;28;20611;-68
2021/08/09 08:35:00;;;;;;;5.43;1.53;;;19.90;99.90;;;;;;5015540;28;21012;-68
2021/08/09 08:37:26;;;;;;;13.13;2.37;;;19.80;99.90;;;;;;5015790;28;20632;-67
2021/08/09 08:39:52;;;;;;;1.60;1.50;;;19.90;99.90;;;;;;5015627;28;20631;-67
2021/08/09 08:42:19;;;;;;;5.13;1.60;;;19.80;99.90;;;;;;5015574;28;20612;-67
2021/08/09 08:44:46;;;;;;;4.77;1.90;;;20.00;99.90;;;;;;5015955;28;20616;-67
2021/08/09 08:47:17;;;;;;;3.87;1.70;;;19.90;99.90;;;;;;5015006;28;20648;-67
2021/08/09 08:49:44;;;;;;;3.70;1.80;;;20.30;99.90;;;;;;5015558;28;20569;-68
2021/08/09 08:52:11;;;;;;;3.83;1.90;;;20.10;99.90;;;;;;5015990;28;20621;-68
2021/08/09 08:54:40;;;;;;;5.03;1.87;;;20.00;99.90;;;;;;5015385;28;20642;-68
2021/08/09 08:57:23;;;;;;;4.43;1.20;;;20.30;99.90;;;;;;5015199;28;20613;-68
2021/08/09 08:59:50;;;;;;;1.77;1.60;;;20.30;99.90;;;;;;5015710;28;20628;-68
2021/08/09 09:02:33;;;;;;;1.43;1.33;;;20.50;99.90;;;;;;5015442;28;20712;-68
2021/08/09 09:05:05;;;;;;;1.70;1.60;;;20.40;99.90;;;;;;5015463;28;20735;-68
2021/08/09 09:07:32;;;;;;;2.50;1.50;;;20.50;99.90;;;;;;5015192;28;20599;-68
2021/08/09 09:10:18;;;;;;;2.40;1.57;;;20.60;99.90;;;;;;5015108;28;20593;-67
2021/08/09 09:13:07;;;;;;;2.00;1.80;;;20.70;99.90;;;;;;5015049;28;20621;-67
2021/08/09 09:16:00;;;;;;;2.17;1.10;;;21.00;99.90;;;;;;5015068;28;20620;-68
2021/08/09 09:18:42;;;;;;;2.30;1.33;;;20.90;99.90;;;;;;5015404;28;21005;-68
2021/08/09 09:21:22;;;;;;;2.97;1.57;;;20.90;99.90;;;;;;5014892;28;20620;-68
2021/08/09 09:23:48;;;;;;;1.50;1.40;;;21.10;99.90;;;;;;5015135;28;20917;-68
2021/08/09 09:26:19;;;;;;;3.10;1.60;;;21.30;99.90;;;;;;5014970;28;20624;-68
2021/08/09 09:28:46;;;;;;;1.50;1.40;;;21.20;99.90;;;;;;5014901;28;20636;-68
2021/08/09 09:31:30;;;;;;;3.10;1.87;;;21.10;99.90;;;;;;5014967;28;20600;-68
2021/08/09 09:33:57;;;;;;;4.10;2.00;;;21.30;99.90;;;;;;5014840;28;20669;-68
2021/08/09 09:36:24;;;;;;;4.30;1.63;;;21.50;99.90;;;;;;5014498;28;20595;-68
2021/08/09 09:38:52;;;;;;;3.43;1.40;;;21.80;99.90;;;;;;5014463;28;20609;-68
2021/08/09 09:41:22;;;;;;;1.80;1.70;;;22.10;99.90;;;;;;5014987;28;20628;-67
2021/08/09 09:43:49;;;;;;;4.87;1.40;;;21.80;99.90;;;;;;5014569;28;20600;-66
2021/08/09 09:46:28;;;;;;;1.50;1.20;;;22.00;99.90;;;;;;5014555;28;20629;-66
2021/08/09 09:49:00;;;;;;;1.97;1.50;;;21.80;99.90;;;;;;5014567;28;20664;-67
2021/08/09 09:51:27;;;;;;;1.60;1.50;;;22.00;99.90;;;;;;5013015;28;20679;-67
2021/08/09 09:53:53;;;;;;;2.27;1.20;;;22.30;99.90;;;;;;5013827;28;20745;-67
2021/08/09 09:56:20;;;;;;;3.03;1.10;;;22.20;99.90;;;;;;5013878;28;20613;-67
2021/08/09 09:58:47;;;;;;;3.20;2.00;;;22.30;99.90;;;;;;5013416;28;20660;-68
2021/08/09 10:01:13;;;;;;;2.57;1.50;;;22.40;99.90;;;;;;5014539;28;20686;-68
2021/08/09 10:03:42;;;;;;;2.83;1.60;;;22.50;99.90;;;;;;5014103;28;20663;-67
2021/08/09 10:06:10;;;;;;;6.67;1.40;;;22.50;99.90;;;;;;5013862;28;20609;-67
2021/08/09 10:08:42;;;;;;;2.03;1.67;;;22.20;99.90;;;;;;5014223;28;20625;-67
2021/08/09 10:11:10;;;;;;;2.13;1.20;;;22.40;99.90;;;;;;5014007;28;20616;-67
2021/08/09 10:13:37;;;;;;;2.93;1.40;;;22.40;99.90;;;;;;5014083;28;20629;-67
2021/08/09 10:16:07;;;;;;;1.90;1.40;;;22.40;99.90;;;;;;5014043;28;20982;-68
2021/08/09 10:18:37;;;;;;;1.67;1.47;;;21.90;99.90;;;;;;5014245;28;20620;-68
2021/08/09 10:21:05;;;;;;;1.50;1.40;;;22.20;99.90;;;;;;5013940;28;21136;-68
2021/08/09 10:23:36;;;;;;;1.53;1.43;;;22.40;99.90;;;;;;5013994;28;20636;-68
2021/08/09 10:26:07;;;;;;;1.50;1.33;;;22.10;99.90;;;;;;5014130;28;20621;-68
2021/08/09 10:28:52;;;;;;;1.73;1.63;;;22.00;99.90;;;;;;5014215;28;21209;-68
2021/08/09 10:31:35;;;;;;;2.30;1.47;;;22.40;99.90;;;;;;5013720;28;20600;-68
2021/08/09 10:34:09;;;;;;;1.60;1.23;;;22.80;99.90;;;;;;5013582;28;20667;-68
2021/08/09 10:37:11;;;;;;;1.40;1.27;;;23.00;99.90;;;;;;5028605;28;20588;-68
2021/08/09 10:39:50;;;;;;;1.40;1.30;;;22.60;99.90;;;;;;5013570;28;20618;-68
2021/08/09 10:42:39;;;;;;;1.50;1.30;;;22.60;99.90;;;;;;5014116;28;20624;-68
2021/08/09 10:45:37;;;;;;;3.10;1.87;;;22.70;99.90;;;;;;5013258;28;20621;-68
2021/08/09 10:48:05;;;;;;;3.57;1.63;;;23.00;99.90;;;;;;5013395;28;20653;-67
2021/08/09 10:50:31;;;;;;;4.33;1.37;;;23.00;99.90;;;;;;5013033;28;20612;-67
2021/08/09 10:52:58;;;;;;;3.40;1.60;;;22.70;99.90;;;;;;5013646;28;20620;-67
2021/08/09 10:55:30;;;;;;;3.23;1.33;;;22.60;99.90;;;;;;5028535;28;20669;-67
2021/08/09 10:58:04;;;;;;;2.27;1.57;;;22.90;99.90;;;;;;5013760;28;20615;-67
2021/08/09 11:00:42;;;;;;;1.40;1.30;;;23.10;99.90;;;;;;5013562;28;20576;-67
2021/08/09 11:03:16;;;;;;;1.73;1.50;;;23.40;99.90;;;;;;5013480;28;20624;-67
2021/08/09 11:05:42;;;;;;;1.47;1.37;;;22.90;99.90;;;;;;5014146;28;20680;-66
2021/08/09 11:08:18;;;;;;;2.10;1.50;;;22.90;99.90;;;;;;5013884;28;21162;-67
2021/08/09 11:11:02;;;;;;;2.40;1.43;;;22.80;99.90;;;;;;5017304;28;21111;-67
2021/08/09 11:13:30;;;;;;;2.70;1.23;;;22.60;99.90;;;;;;5017328;28;20635;-67
2021/08/09 11:15:58;;;;;;;2.17;1.97;;;22.40;99.90;;;;;;5017638;28;20639;-67
2021/08/09 11:18:27;;;;;;;1.93;1.50;;;22.50;99.90;;;;;;5017325;28;20601;-67
2021/08/09 11:21:03;;;;;;;1.30;1.20;;;22.20;99.90;;;;;;5017489;28;20617;-67
2021/08/09 11:23:58;;;;;;;4.20;1.63;;;22.10;99.90;;;;;;5015827;28;20632;-67
2021/08/09 11:26:27;;;;;;;4.20;1.80;;;22.10;99.90;;;;;;5016985;28;21167;-67
2021/08/09 11:29:19;;;;;;;2.03;1.40;;;22.00;99.90;;;;;;5017048;28;20617;-68
2021/08/09 11:31:47;;;;;;;4.23;1.70;;;22.00;99.90;;;;;;5015287;28;20746;-68
2021/08/09 11:34:14;;;;;;;2.10;1.57;;;22.00;99.90;;;;;;5017319;28;20667;-67
2021/08/09 11:36:41;;;;;;;1.50;1.40;;;22.30;99.90;;;;;;5016987;28;20628;-67
2021/08/09 11:39:09;;;;;;;3.20;1.40;;;23.30;99.90;;;;;;5017161;28;21111;-68
2021/08/09 11:41:36;;;;;;;1.40;1.30;;;24.30;99.90;;;;;;5017113;28;21157;-67
2021/08/09 11:44:08;;;;;;;2.40;1.30;;;23.80;99.90;;;;;;5016864;28;20613;-67
2021/08/09 11:46:49;;;;;;;1.63;1.50;;;23.60;99.90;;;;;;5031510;28;21162;-67
2021/08/09 11:49:19;;;;;;;1.87;1.40;;;24.40;99.90;;;;;;5016556;28;20648;-67
2021/08/09 11:51:45;;;;;;;3.40;1.33;;;24.80;99.90;;;;;;5016947;28;20731;-66
2021/08/09 11:54:11;;;;;;;1.27;1.17;;;25.00;99.90;;;;;;5016469;28;20664;-67
2021/08/09 11:56:39;;;;;;;2.70;1.63;;;25.20;99.90;;;;;;5016632;28;20625;-68
2021/08/09 11:59:12;;;;;;;2.30;1.90;;;25.50;99.90;;;;;;5016442;28;20620;-68
2021/08/09 12:01:41;;;;;;;1.83;1.40;;;25.40;99.90;;;;;;5016547;28;20599;-68
2021/08/09 12:04:08;;;;;;;1.40;1.30;;;25.40;99.90;;;;;;5016913;28;20592;-68
2021/08/09 12:07:04;;;;;;;11.40;2.10;;;25.40;99.90;;;;;;5016561;28;21135;-68
2021/08/09 12:09:37;;;;;;;5.37;2.17;;;25.60;99.90;;;;;;5007689;28;20702;-67
2021/08/09 12:12:06;;;;;;;1.60;1.40;;;25.50;99.90;;;;;;5016053;28;20620;-67
2021/08/09 12:14:33;;;;;;;2.40;1.63;;;24.70;99.90;;;;;;5016128;28;20724;-68
2021/08/09 12:17:01;;;;;;;3.73;1.70;;;25.10;99.90;;;;;;5016152;28;20988;-68
2021/08/09 12:19:38;;;;;;;4.30;1.50;;;25.60;99.90;;;;;;5015963;28;20685;-68
2021/08/09 12:22:17;;;;;;;2.00;1.53;;;25.70;99.90;;;;;;5013513;28;20650;-68
2021/08/09 12:25:07;;;;;;;2.87;1.23;;;25.30;99.90;;;;;;5016266;28;20565;-68
2021/08/09 12:27:34;;;;;;;3.33;1.37;;;26.30;99.90;;;;;;5016050;28;20639;-68
2021/08/09 12:30:11;;;;;;;1.60;1.40;;;26.00;99.90;;;;;;5015956;28;20615;-67
2021/08/09 12:32:56;;;;;;;1.60;1.23;;;25.40;99.90;;;;;;5016040;28;20651;-68
2021/08/09 12:35:37;;;;;;;1.73;1.40;;;26.20;99.90;;;;;;5015727;28;20643;-68
2021/08/09 12:38:04;;;;;;;3.20;1.53;;;26.80;99.90;;;;;;5016230;28;20626;-68
2021/08/09 12:40:46;;;;;;;2.40;1.60;;;26.00;99.90;;;;;;5016149;28;21135;-68
2021/08/09 12:43:15;;;;;;;1.40;1.17;;;26.60;99.90;;;;;;5015984;28;20537;-68
2021/08/09 12:45:42;;;;;;;4.00;1.53;;;27.20;99.90;;;;;;5014315;28;20629;-68
2021/08/09 12:48:10;;;;;;;2.17;1.50;;;26.80;99.90;;;;;;5015372;28;21198;-68
2021/08/09 12:50:38;;;;;;;2.70;1.77;;;27.80;99.90;;;;;;5015556;28;20962;-68
2021/08/09 12:53:04;;;;;;;2.07;1.40;;;26.20;99.90;;;;;;5015520;28;20628;-68
2021/08/09 12:55:31;;;;;;;2.70;1.90;;;26.20;99.90;;;;;;5015393;28;20644;-68
2021/08/09 12:58:02;;;;;;;2.50;1.60;;;25.90;99.90;;;;;;5015508;28;20939;-68